createdAt,value
2022-10-11T00:01:14.824Z,8.50
2022-10-11T00:03:41.738Z,11.30
2022-10-11T00:06:09.344Z,11.50
2022-10-11T00:08:36.335Z,8.90
2022-10-11T00:11:06.866Z,12.70
2022-10-11T07:57:06.261Z,23.80
2022-10-11T07:59:32.601Z,20.60
2022-10-11T08:01:58.665Z,19.70
2022-10-11T08:04:24.764Z,22.80
2022-10-11T08:06:53.350Z,21.60
2022-10-11T08:09:19.546Z,24.80
2022-10-11T08:11:45.562Z,19.80
2022-10-11T08:14:11.682Z,22.00
2022-10-11T08:16:38.803Z,24.00
2022-10-11T08:19:06.095Z,19.20
2022-10-11T08:21:32.757Z,14.30
2022-10-11T08:24:00.551Z,19.30
2022-10-11T08:26:26.540Z,18.60
2022-10-11T08:28:52.595Z,15.00
2022-10-11T08:31:19.002Z,19.70
2022-10-11T08:33:47.576Z,19.20
2022-10-11T08:36:13.747Z,17.00
2022-10-11T08:38:40.959Z,16.90
2022-10-11T08:41:26.892Z,13.60
2022-10-11T08:43:55.852Z,17.30
2022-10-11T08:46:31.266Z,16.90
2022-10-11T08:48:57.780Z,14.10
2022-10-11T08:51:49.548Z,15.20
2022-10-11T08:54:35.298Z,16.90
2022-10-11T08:57:05.889Z,20.30
2022-10-11T08:59:50.498Z,12.20
2022-10-11T09:02:55.571Z,14.80
2022-10-11T09:05:19.929Z,14.00
2022-10-11T09:08:05.521Z,11.80
2022-10-11T09:10:53.067Z,11.70
2022-10-11T09:13:44.259Z,10.70
2022-10-11T09:16:54.562Z,11.90
2022-10-11T09:19:59.268Z,13.40
2022-10-11T09:23:10.930Z,13.50
2022-10-11T09:25:51.218Z,14.20
2022-10-11T09:29:01.710Z,11.60
2022-10-11T09:31:28.909Z,14.30
2022-10-11T09:33:55.740Z,13.50
2022-10-11T09:36:41.056Z,13.20
2022-10-11T09:39:35.642Z,10.70
2022-10-11T09:42:07.331Z,15.20
2022-10-11T09:44:50.684Z,10.80
2022-10-11T09:47:23.344Z,13.50
2022-10-11T09:50:00.024Z,11.50
2022-10-11T09:52:26.496Z,11.20
2022-10-11T09:55:01.635Z,11.10
2022-10-11T09:57:31.297Z,10.10
2022-10-11T10:00:22.683Z,10.00
2022-10-11T10:02:57.203Z,8.60
2022-10-11T10:05:25.980Z,8.60
2022-10-11T10:08:10.465Z,11.20
2022-10-11T10:10:59.581Z,11.90
2022-10-11T10:13:52.541Z,9.60
2022-10-11T10:16:28.631Z,6.60
2022-10-11T10:19:05.509Z,9.50
2022-10-11T10:21:42.929Z,5.20
2022-10-11T10:24:37.633Z,6.70
2022-10-11T10:27:06.397Z,7.40
2022-10-11T10:29:32.781Z,8.70
2022-10-11T10:32:22.798Z,6.40
2022-10-11T10:35:06.976Z,6.20
2022-10-11T10:37:43.032Z,6.60
2022-10-11T10:40:20.062Z,5.90
2022-10-11T10:42:49.493Z,12.80
2022-10-11T10:45:21.468Z,4.40
2022-10-11T10:48:23.901Z,7.00
2022-10-11T10:51:10.342Z,6.50
2022-10-11T10:53:46.205Z,8.50
2022-10-11T10:56:22.568Z,6.90
2022-10-11T10:58:51.557Z,7.70
2022-10-11T11:01:23.879Z,7.90
2022-10-11T11:04:01.786Z,7.30
2022-10-11T11:06:54.121Z,8.60
2022-10-11T11:09:30.270Z,8.60
2022-10-11T11:12:26.649Z,8.10
2022-10-11T11:15:32.572Z,8.40
2022-10-11T11:18:25.220Z,8.40
2022-10-11T11:21:19.871Z,5.40
2022-10-11T11:24:00.901Z,8.20
2022-10-11T11:26:56.719Z,9.10
2022-10-11T11:29:38.322Z,6.30
2022-10-11T11:32:26.661Z,8.20
2022-10-11T11:35:03.218Z,7.10
2022-10-11T11:37:41.136Z,7.90
2022-10-11T11:40:43.668Z,6.80
2022-10-11T11:43:32.534Z,6.70
2022-10-11T11:46:18.062Z,5.70
2022-10-11T11:48:45.051Z,9.30
2022-10-11T11:51:22.984Z,7.60
2022-10-11T11:54:31.010Z,7.90
2022-10-11T11:57:18.876Z,6.40
2022-10-11T12:00:03.280Z,8.60
2022-10-11T12:02:52.683Z,6.00
2022-10-11T12:05:27.784Z,7.80
2022-10-11T12:08:08.029Z,8.60
2022-10-11T12:10:49.411Z,4.80
2022-10-11T12:13:31.191Z,6.10
2022-10-11T12:16:14.837Z,4.10
2022-10-11T12:19:03.208Z,7.90
2022-10-11T12:21:39.309Z,7.20
2022-10-11T12:24:19.716Z,7.70
2022-10-11T12:26:48.636Z,4.60
2022-10-11T12:29:17.743Z,6.00
2022-10-11T12:31:47.791Z,7.00
2022-10-11T12:34:36.286Z,4.70
2022-10-11T12:37:22.732Z,10.50
2022-10-11T12:39:55.016Z,3.10
2022-10-11T12:42:31.046Z,5.00
2022-10-11T12:45:14.937Z,6.80
2022-10-11T12:48:17.658Z,4.30
2022-10-11T12:51:22.317Z,4.90
2022-10-11T12:54:36.907Z,5.70
2022-10-11T12:57:45.220Z,4.40
2022-10-11T13:00:33.429Z,5.60
2022-10-11T13:03:27.238Z,6.60
2022-10-11T13:06:01.467Z,6.50
2022-10-11T13:08:39.888Z,6.40
2022-10-11T13:11:11.004Z,8.10
2022-10-11T13:13:57.556Z,8.40
2022-10-11T13:16:40.954Z,9.10
2022-10-11T13:19:14.024Z,5.80
2022-10-11T13:21:41.088Z,9.00
2022-10-11T13:24:17.988Z,6.10
2022-10-11T13:26:48.152Z,6.60
2022-10-11T13:29:33.198Z,6.00
2022-10-11T13:32:04.978Z,6.60
2022-10-11T13:34:38.188Z,8.70
2022-10-11T13:37:05.857Z,6.90
2022-10-11T13:39:38.415Z,7.40
2022-10-11T13:42:10.248Z,7.60
2022-10-11T13:44:38.782Z,6.90
2022-10-11T13:47:05.611Z,5.10
2022-10-11T13:49:37.766Z,5.40
2022-10-11T13:52:18.612Z,6.80
2022-10-11T13:55:03.113Z,7.50
2022-10-11T13:57:43.712Z,3.90
2022-10-11T14:00:16.749Z,6.30
2022-10-11T14:03:32.666Z,7.40
2022-10-11T14:05:59.719Z,6.60
2022-10-11T14:08:37.441Z,6.10
2022-10-11T14:11:06.833Z,7.20
2022-10-11T14:13:43.595Z,6.00
2022-10-11T14:16:29.189Z,8.10
2022-10-11T14:18:58.086Z,7.30
2022-10-11T14:21:45.186Z,5.70
2022-10-11T14:24:12.258Z,6.80
2022-10-11T14:26:44.793Z,6.40
2022-10-11T14:29:25.444Z,8.80
2022-10-11T14:31:58.351Z,8.00
2022-10-11T14:34:31.142Z,7.30
2022-10-11T14:36:57.703Z,6.90
2022-10-11T14:39:27.258Z,6.50
2022-10-11T14:41:54.044Z,5.50
2022-10-11T14:44:21.647Z,8.40
2022-10-11T14:46:49.936Z,5.20
2022-10-11T14:49:24.409Z,8.90
2022-10-11T14:51:52.190Z,6.10
2022-10-11T14:54:24.260Z,6.60
2022-10-11T14:56:53.215Z,7.40
2022-10-11T14:59:23.894Z,6.80
2022-10-11T15:01:51.049Z,6.00
2022-10-11T15:04:19.219Z,6.70
2022-10-11T15:06:45.834Z,6.00
2022-10-11T15:09:12.133Z,7.60
2022-10-11T15:11:38.386Z,6.20
2022-10-11T15:14:06.119Z,7.30
2022-10-11T15:16:33.714Z,6.10
2022-10-11T15:19:00.121Z,7.40
2022-10-11T15:21:28.481Z,7.00
2022-10-11T15:23:56.147Z,7.00
2022-10-11T15:26:27.060Z,7.40
2022-10-11T15:28:56.126Z,6.30
2022-10-11T15:31:22.841Z,7.70
2022-10-11T15:33:49.895Z,4.70
2022-10-11T15:36:20.819Z,6.30
2022-10-11T15:38:47.954Z,7.00
2022-10-11T15:41:19.337Z,9.80
2022-10-11T15:43:48.176Z,7.20
2022-10-11T15:46:19.960Z,7.00
2022-10-11T15:48:46.837Z,6.10
2022-10-11T15:51:12.946Z,5.80
2022-10-11T15:53:39.533Z,6.60
2022-10-11T15:56:11.377Z,6.80
2022-10-11T15:58:40.176Z,8.10
2022-10-11T16:01:16.294Z,4.80
2022-10-11T16:03:42.670Z,7.20
2022-10-11T16:06:09.703Z,6.50
2022-10-11T16:08:36.823Z,6.50
2022-10-11T16:11:05.604Z,9.00
2022-10-11T16:13:32.297Z,9.90
2022-10-11T16:16:04.370Z,6.50
2022-10-11T16:18:35.063Z,7.90
2022-10-11T16:21:08.385Z,6.70
2022-10-11T16:23:35.322Z,6.70
2022-10-11T16:26:06.704Z,6.10
2022-10-11T16:28:34.117Z,6.80
2022-10-11T16:31:10.332Z,7.50
2022-10-11T16:33:44.725Z,8.70
2022-10-11T16:36:36.525Z,7.70
2022-10-11T16:39:13.193Z,6.40
2022-10-11T16:41:40.424Z,10.70
2022-10-11T16:44:07.207Z,8.30
2022-10-11T16:46:33.911Z,6.90
2022-10-11T16:49:00.898Z,6.60
2022-10-11T16:51:26.999Z,7.10
2022-10-11T16:53:53.051Z,11.50
2022-10-11T16:56:30.820Z,10.50
2022-10-11T16:58:56.862Z,8.70
2022-10-11T17:01:24.625Z,10.90
2022-10-11T17:03:52.629Z,10.20
2022-10-11T17:06:19.405Z,9.90
2022-10-11T17:08:45.766Z,8.70
2022-10-11T17:11:11.894Z,9.90
2022-10-11T17:13:37.872Z,12.40
2022-10-11T17:16:04.666Z,11.00
2022-10-11T17:18:31.890Z,8.70
2022-10-11T17:21:04.277Z,11.50
2022-10-11T17:23:30.309Z,15.00
2022-10-11T17:25:56.516Z,14.40
2022-10-11T17:28:22.770Z,11.30
2022-10-11T17:30:56.873Z,11.50
2022-10-11T17:33:27.638Z,15.00
2022-10-11T17:35:55.839Z,14.00
2022-10-11T17:38:27.401Z,13.20
2022-10-11T17:41:03.154Z,11.10
2022-10-11T17:43:30.525Z,11.20
2022-10-11T17:46:05.201Z,13.00
2022-10-11T17:48:35.829Z,11.00
2022-10-11T17:51:11.020Z,14.80
2022-10-11T17:53:37.834Z,12.70
2022-10-11T17:56:07.260Z,13.90
2022-10-11T17:58:33.929Z,16.40
2022-10-11T18:01:06.938Z,18.10
2022-10-11T18:03:33.464Z,16.50
2022-10-11T18:06:07.408Z,17.50
2022-10-11T18:08:40.145Z,15.60
2022-10-11T18:11:25.672Z,18.80
2022-10-11T18:13:52.940Z,14.80
2022-10-11T18:16:23.293Z,16.60
2022-10-11T18:18:50.162Z,16.50
2022-10-11T18:21:18.031Z,18.60
2022-10-11T18:23:45.597Z,14.00
2022-10-11T18:26:15.684Z,15.40
2022-10-11T18:28:42.710Z,16.20
2022-10-11T18:31:14.345Z,17.00
2022-10-11T18:33:42.082Z,20.00
2022-10-11T18:36:12.590Z,17.20
2022-10-11T18:38:43.401Z,19.90
2022-10-11T18:41:12.054Z,20.70
2022-10-11T18:43:38.813Z,19.10
2022-10-11T18:46:11.369Z,19.80
2022-10-11T18:48:47.129Z,23.20
2022-10-11T18:51:18.881Z,21.40
2022-10-11T18:53:45.932Z,24.50
2022-10-11T18:56:13.917Z,23.00
2022-10-11T18:58:42.266Z,23.50
2022-10-11T19:01:16.058Z,29.00
2022-10-11T19:03:46.842Z,22.20
2022-10-11T19:06:20.952Z,24.00
2022-10-11T19:08:59.898Z,26.50
2022-10-11T19:11:26.944Z,24.00
2022-10-11T19:14:22.542Z,25.80
2022-10-11T19:16:50.798Z,22.80
2022-10-11T19:19:21.485Z,25.20
2022-10-11T19:21:48.065Z,23.70
2022-10-11T19:24:16.869Z,21.90
2022-10-11T19:26:43.357Z,20.40
2022-10-11T19:29:18.155Z,26.40
2022-10-11T19:31:48.210Z,19.60
2022-10-11T19:34:14.938Z,21.80
2022-10-11T19:36:42.080Z,24.70
2022-10-11T19:39:11.964Z,25.60
2022-10-11T19:41:38.098Z,22.50
2022-10-11T19:44:04.467Z,20.60
2022-10-11T19:49:19.595Z,24.60
2022-10-11T19:51:45.709Z,19.60
2022-10-11T19:54:13.714Z,21.70
2022-10-11T19:56:40.521Z,23.00
2022-10-11T19:59:06.512Z,18.50
2022-10-11T20:01:34.519Z,18.60
2022-10-11T20:04:06.372Z,14.50
2022-10-11T20:06:38.274Z,19.30
2022-10-11T20:09:28.515Z,18.00
2022-10-11T20:11:56.032Z,17.80
2022-10-11T20:14:24.163Z,18.90
2022-10-11T20:16:50.406Z,18.00
2022-10-11T20:19:17.097Z,17.80
2022-10-11T20:21:44.597Z,21.00
2022-10-11T20:24:10.599Z,19.20
2022-10-11T20:26:36.981Z,16.40
2022-10-11T20:29:03.167Z,18.30
2022-10-11T20:31:33.030Z,18.20
2022-10-11T20:34:02.744Z,21.40
2022-10-11T20:36:30.205Z,16.80
2022-10-11T20:38:58.956Z,16.00
2022-10-11T20:41:30.834Z,16.30
2022-10-11T20:43:58.820Z,16.10
2022-10-11T20:46:29.236Z,21.40
2022-10-11T20:49:01.874Z,17.10
2022-10-11T20:51:34.956Z,19.70
2022-10-11T20:54:03.622Z,21.60
2022-10-11T20:56:30.196Z,15.70
2022-10-11T20:58:57.808Z,17.00
2022-10-11T21:01:27.917Z,16.90
2022-10-11T21:03:56.009Z,17.10
2022-10-11T21:06:22.034Z,17.10
2022-10-11T21:08:48.301Z,16.40
2022-10-11T21:11:14.386Z,15.30
2022-10-11T21:13:41.444Z,15.60
2022-10-11T21:16:15.084Z,20.10
2022-10-11T21:18:41.691Z,18.00
2022-10-11T21:21:13.762Z,16.60
2022-10-11T21:23:40.954Z,18.00
2022-10-11T21:26:11.566Z,15.00
2022-10-11T21:28:38.857Z,17.50
2022-10-11T21:31:10.309Z,14.80
2022-10-11T21:33:37.170Z,14.20
2022-10-11T21:36:12.505Z,17.10
2022-10-11T21:38:39.171Z,15.60
2022-10-11T21:41:09.289Z,15.30
2022-10-11T21:43:37.581Z,12.80
2022-10-11T21:46:54.134Z,16.90
2022-10-11T21:49:17.692Z,14.20
2022-10-11T21:51:44.515Z,15.40
2022-10-11T21:54:10.858Z,16.00
2022-10-11T21:56:36.906Z,14.80
2022-10-11T21:59:05.467Z,14.90
2022-10-11T22:01:35.987Z,16.30
2022-10-11T22:04:06.954Z,16.00
2022-10-11T22:06:33.771Z,13.00
2022-10-11T22:09:01.070Z,14.00
2022-10-11T22:11:27.228Z,16.20
2022-10-11T22:13:53.301Z,17.30
2022-10-11T22:16:19.649Z,14.80
2022-10-11T22:18:45.818Z,16.10
2022-10-11T22:21:14.410Z,17.90
2022-10-11T22:23:42.545Z,19.10
2022-10-11T22:26:18.106Z,18.00
2022-10-11T22:28:45.772Z,13.10
2022-10-11T22:31:12.952Z,15.90
2022-10-11T22:33:39.361Z,18.10
2022-10-11T22:36:08.696Z,16.90
2022-10-11T22:38:36.674Z,14.40
2022-10-11T22:41:02.946Z,17.80
2022-10-11T22:43:29.119Z,15.00
2022-10-11T22:45:55.101Z,16.30
2022-10-11T22:48:21.108Z,14.20
2022-10-11T22:50:47.192Z,15.40
2022-10-11T22:53:14.063Z,19.10
2022-10-11T22:55:40.746Z,15.40
2022-10-11T22:58:07.042Z,18.70
2022-10-11T23:00:33.487Z,14.20
2022-10-11T23:02:59.688Z,16.10
2022-10-11T23:05:26.073Z,18.90
2022-10-11T23:07:52.098Z,16.60
2022-10-11T23:10:18.586Z,16.80
2022-10-11T23:12:44.921Z,17.40
2022-10-11T23:15:12.156Z,14.50
2022-10-11T23:17:38.646Z,16.50
2022-10-11T23:20:05.827Z,16.50
2022-10-11T23:22:32.268Z,15.70
2022-10-11T23:24:58.244Z,14.90
2022-10-11T23:27:24.240Z,16.70
2022-10-11T23:29:50.230Z,15.30
2022-10-11T23:32:16.341Z,14.80
2022-10-11T23:34:43.382Z,17.80
2022-10-11T23:37:09.388Z,18.50
2022-10-11T23:39:35.386Z,16.40
2022-10-11T23:42:01.333Z,18.60
2022-10-11T23:44:27.652Z,15.20
2022-10-11T23:46:53.682Z,18.00
2022-10-11T23:49:19.628Z,16.50
2022-10-11T23:51:45.664Z,16.00
2022-10-11T23:54:11.660Z,16.80
2022-10-11T23:56:37.704Z,15.40
2022-10-11T23:59:03.741Z,16.30
